Westville, New York
Current Conditions -  °F | °C
As of 5:15 PM on Tuesday 25 Nov 2014 (Local Time) from KNY0 Reporting Station
Clear Clear  
Wind Chill: 37°   Ceiling: Unl
Heat Index: 42°   Visibility: 10mi
Dew Point: 24°   Wind: 7mph
Humidity: 49%   Direction: 220°SW
Pressure: 29.97"   Gusts: NA
Location:  42.6052°N, 74.8141°W
Report Text: KNY0 252215Z AUTO 22006KT 10SM CLR 05/M05 A2997 RMK AO2 T00531046
Loading
Personal Weather Stations






























Interactive Weather Map New forecast layout! Learn more

10-Day Weather Forecast

Advertisements
Track Severe Weather on mobile